Time;durP1;ratioP1;P1;durP2;ratioP2;P2;SDS_P1;SDS_P2;PMS_P1;PMS_P2;Temp;Humidity;BMP_temperature;BMP_pressure;BME280_temperature;BME280_humidity;BME280_pressure;Samples;Min_cycle;Max_cycle;Signal;HPM_P1;HPM_P2
2024/03/06 00:02:12;;;;;;;7.63;7.53;;;;;;;;;;5023760;28;20494;-71
2024/03/06 00:04:41;;;;;;;7.17;7.07;;;;;;;;;;5017582;28;20493;-71
2024/03/06 00:07:08;;;;;;;7.50;7.40;;;;;;;;;;5028674;28;20496;-70
2024/03/06 00:09:36;;;;;;;7.30;7.20;;;;;;;;;;5029273;28;20463;-70
2024/03/06 00:12:04;;;;;;;7.77;7.67;;;;;;;;;;5023829;28;20472;-70
2024/03/06 00:14:31;;;;;;;7.80;7.70;;;;;;;;;;5029328;28;20572;-70
2024/03/06 00:16:58;;;;;;;7.93;7.83;;;;;;;;;;5029055;28;20945;-72
2024/03/06 00:19:25;;;;;;;7.93;7.83;;;;;;;;;;5023098;28;20475;-70
2024/03/06 00:21:54;;;;;;;8.47;8.37;;;;;;;;;;5027237;28;20495;-70
2024/03/06 00:24:21;;;;;;;8.87;8.77;;;;;;;;;;5025882;28;20844;-71
2024/03/06 00:26:48;;;;;;;8.87;8.77;;;;;;;;;;5029173;28;20568;-70
2024/03/06 00:29:15;;;;;;;8.43;8.33;;;;;;;;;;5029154;28;20963;-70
2024/03/06 00:31:44;;;;;;;8.90;8.80;;;;;;;;;;5022399;28;20972;-70
2024/03/06 00:34:13;;;;;;;9.23;9.03;;;;;;;;;;5024899;28;20475;-70
2024/03/06 00:36:41;;;;;;;9.50;9.30;;;;;;;;;;5028759;28;20943;-70
2024/03/06 00:39:10;;;;;;;9.27;9.07;;;;;;;;;;5024474;28;20999;-70
2024/03/06 00:41:38;;;;;;;9.30;9.10;;;;;;;;;;5026814;28;20470;-70
2024/03/06 00:44:06;;;;;;;8.63;8.53;;;;;;;;;;5023758;28;20465;-70
2024/03/06 00:46:34;;;;;;;9.10;8.90;;;;;;;;;;5027390;28;20488;-70
2024/03/06 00:49:01;;;;;;;8.33;8.23;;;;;;;;;;5028448;28;20458;-70
2024/03/06 00:51:28;;;;;;;8.37;8.27;;;;;;;;;;5021186;28;20472;-70
2024/03/06 00:53:56;;;;;;;8.70;8.60;;;;;;;;;;5024195;28;20469;-71
2024/03/06 00:56:25;;;;;;;8.93;8.77;;;;;;;;;;4995716;28;20827;-70
2024/03/06 00:58:52;;;;;;;8.63;8.53;;;;;;;;;;4995052;28;20998;-70
2024/03/06 01:01:19;;;;;;;8.70;8.60;;;;;;;;;;4994163;28;20593;-71
2024/03/06 01:03:46;;;;;;;8.63;8.53;;;;;;;;;;4993881;28;20484;-70
2024/03/06 01:06:14;;;;;;;8.53;8.43;;;;;;;;;;4994529;28;20501;-71
2024/03/06 01:08:41;;;;;;;9.00;8.90;;;;;;;;;;4992348;28;20465;-71
2024/03/06 01:11:08;;;;;;;8.20;8.10;;;;;;;;;;4993710;28;20458;-71
2024/03/06 01:13:37;;;;;;;7.97;7.87;;;;;;;;;;4993340;28;20477;-70
2024/03/06 01:16:04;;;;;;;8.77;8.67;;;;;;;;;;4993001;28;20491;-70
2024/03/06 01:18:31;;;;;;;8.37;8.27;;;;;;;;;;4993558;28;20470;-70
2024/03/06 01:20:58;;;;;;;8.00;7.90;;;;;;;;;;4992868;28;22929;-70
2024/03/06 01:23:25;;;;;;;8.17;8.07;;;;;;;;;;4992991;28;20460;-70
2024/03/06 01:25:53;;;;;;;8.57;8.47;;;;;;;;;;4991921;28;20503;-72
2024/03/06 01:28:20;;;;;;;8.40;8.30;;;;;;;;;;4994399;28;20488;-70
2024/03/06 01:30:48;;;;;;;8.47;8.37;;;;;;;;;;4994141;28;20471;-71
2024/03/06 01:33:16;;;;;;;9.03;8.90;;;;;;;;;;4991791;28;20463;-71
2024/03/06 01:35:43;;;;;;;8.57;8.47;;;;;;;;;;4992814;28;21436;-70
2024/03/06 01:38:11;;;;;;;9.23;9.03;;;;;;;;;;4993547;28;20991;-70
2024/03/06 01:40:38;;;;;;;9.20;9.00;;;;;;;;;;4991090;28;20466;-70
2024/03/06 01:43:05;;;;;;;8.70;8.60;;;;;;;;;;4992976;28;20461;-70
2024/03/06 01:45:32;;;;;;;9.20;9.10;;;;;;;;;;4993298;28;20480;-71
2024/03/06 01:48:01;;;;;;;9.00;8.90;;;;;;;;;;4993347;28;20472;-70
2024/03/06 01:50:29;;;;;;;9.10;9.00;;;;;;;;;;4994459;28;20476;-71
2024/03/06 01:52:56;;;;;;;8.93;8.83;;;;;;;;;;4994304;28;20473;-70
2024/03/06 01:55:23;;;;;;;9.13;9.00;;;;;;;;;;5009284;28;21061;-70
2024/03/06 01:57:51;;;;;;;9.17;9.03;;;;;;;;;;5022075;28;20461;-69
2024/03/06 02:00:18;;;;;;;8.90;8.80;;;;;;;;;;5026067;28;20469;-70
2024/03/06 02:02:45;;;;;;;9.60;9.40;;;;;;;;;;5022133;28;20472;-70
2024/03/06 02:05:13;;;;;;;10.13;9.93;;;;;;;;;;5025573;28;20477;-69
2024/03/06 02:07:41;;;;;;;9.53;9.33;;;;;;;;;;5021867;28;20493;-70
2024/03/06 02:10:12;;;;;;;9.70;9.50;;;;;;;;;;5026878;28;20464;-70
2024/03/06 02:12:40;;;;;;;9.47;9.27;;;;;;;;;;5027471;28;20461;-69
2024/03/06 02:15:08;;;;;;;9.33;9.13;;;;;;;;;;5020709;28;20461;-70
2024/03/06 02:17:35;;;;;;;9.60;9.40;;;;;;;;;;5022584;28;20484;-68
2024/03/06 02:20:05;;;;;;;9.90;9.70;;;;;;;;;;5024443;28;20469;-73
2024/03/06 02:22:34;;;;;;;10.30;10.10;;;;;;;;;;5027257;28;20479;-69
2024/03/06 02:25:01;;;;;;;10.20;10.00;;;;;;;;;;5024956;28;20948;-70
2024/03/06 02:27:28;;;;;;;10.57;10.37;;;;;;;;;;5019500;28;20499;-71
2024/03/06 02:29:55;;;;;;;10.27;10.07;;;;;;;;;;5022509;28;20990;-69
2024/03/06 02:32:24;;;;;;;10.67;10.47;;;;;;;;;;5025182;28;20462;-70
2024/03/06 02:34:51;;;;;;;11.07;10.87;;;;;;;;;;5023339;28;20944;-73
2024/03/06 02:37:18;;;;;;;10.63;10.43;;;;;;;;;;5021547;28;20500;-74
2024/03/06 02:39:47;;;;;;;10.07;9.87;;;;;;;;;;5025268;28;20939;-71
2024/03/06 02:42:14;;;;;;;9.97;9.77;;;;;;;;;;5021407;28;20553;-70
2024/03/06 02:44:41;;;;;;;9.70;9.50;;;;;;;;;;5025113;28;20808;-69
2024/03/06 02:47:08;;;;;;;10.77;10.57;;;;;;;;;;5026932;28;20491;-71
2024/03/06 02:49:35;;;;;;;10.50;10.30;;;;;;;;;;5021190;28;20457;-70
2024/03/06 02:52:02;;;;;;;10.37;10.17;;;;;;;;;;5026920;28;20948;-71
2024/03/06 02:54:30;;;;;;;10.50;10.30;;;;;;;;;;5020357;28;20484;-70
2024/03/06 02:56:58;;;;;;;11.10;10.90;;;;;;;;;;5024338;28;20488;-72
2024/03/06 02:59:26;;;;;;;11.10;10.90;;;;;;;;;;5021987;28;20818;-71
2024/03/06 03:01:53;;;;;;;11.10;10.90;;;;;;;;;;5025913;28;20491;-73
2024/03/06 03:04:20;;;;;;;11.47;11.17;;;;;;;;;;5023237;28;20955;-71
2024/03/06 03:06:48;;;;;;;11.70;11.40;;;;;;;;;;5026842;28;20897;-72
2024/03/06 03:09:15;;;;;;;11.27;11.00;;;;;;;;;;5019734;28;20465;-68
2024/03/06 03:11:44;;;;;;;10.87;10.67;;;;;;;;;;5016948;28;20456;-71
2024/03/06 03:14:12;;;;;;;11.77;11.47;;;;;;;;;;5026730;28;20473;-73
2024/03/06 03:16:41;;;;;;;12.07;11.77;;;;;;;;;;5030208;28;20469;-70
2024/03/06 03:19:08;;;;;;;11.40;11.10;;;;;;;;;;5026504;28;20466;-70
2024/03/06 03:21:36;;;;;;;12.20;11.90;;;;;;;;;;5030244;28;20471;-70
2024/03/06 03:24:04;;;;;;;12.40;12.10;;;;;;;;;;5028437;28;20750;-69
2024/03/06 03:26:31;;;;;;;12.40;12.10;;;;;;;;;;5022644;28;20484;-68
2024/03/06 03:28:58;;;;;;;12.53;12.23;;;;;;;;;;5026224;28;20457;-73
2024/03/06 03:31:26;;;;;;;12.70;12.40;;;;;;;;;;5030239;28;20954;-69
2024/03/06 03:33:53;;;;;;;12.30;12.00;;;;;;;;;;5027750;28;20563;-70
2024/03/06 03:36:21;;;;;;;12.33;12.03;;;;;;;;;;5025378;28;20561;-70
2024/03/06 03:38:48;;;;;;;11.70;11.40;;;;;;;;;;5030053;28;20463;-71
2024/03/06 03:41:16;;;;;;;12.70;12.40;;;;;;;;;;5023189;28;20476;-68
2024/03/06 03:43:43;;;;;;;12.83;12.53;;;;;;;;;;5029857;28;20487;-69
2024/03/06 03:46:11;;;;;;;12.67;12.37;;;;;;;;;;5025817;28;20500;-70
2024/03/06 03:48:39;;;;;;;12.90;12.60;;;;;;;;;;5025525;28;20962;-68
2024/03/06 03:51:07;;;;;;;13.03;12.73;;;;;;;;;;5028895;28;20678;-70
2024/03/06 03:53:34;;;;;;;12.67;12.37;;;;;;;;;;5025772;28;20457;-69
2024/03/06 03:56:01;;;;;;;13.13;12.77;;;;;;;;;;5029510;28;20490;-69
2024/03/06 03:58:29;;;;;;;13.40;13.00;;;;;;;;;;5026507;28;20462;-69
2024/03/06 04:00:56;;;;;;;13.97;13.57;;;;;;;;;;5024208;28;20572;-69
2024/03/06 04:03:23;;;;;;;13.17;12.83;;;;;;;;;;5023619;28;20557;-71
2024/03/06 04:05:52;;;;;;;13.47;13.07;;;;;;;;;;5028507;28;20452;-70
2024/03/06 04:08:19;;;;;;;13.50;13.10;;;;;;;;;;5026103;28;20849;-70
2024/03/06 04:10:47;;;;;;;13.60;13.20;;;;;;;;;;5029406;28;20468;-71
2024/03/06 04:13:14;;;;;;;13.70;13.30;;;;;;;;;;5027614;28;20507;-69
2024/03/06 04:15:41;;;;;;;14.10;13.70;;;;;;;;;;5025833;28;20499;-70
2024/03/06 04:18:09;;;;;;;13.77;13.37;;;;;;;;;;5029771;28;20776;-70
2024/03/06 04:20:36;;;;;;;13.83;13.43;;;;;;;;;;5025919;28;20474;-69
2024/03/06 04:23:04;;;;;;;15.57;15.07;;;;;;;;;;5021962;28;20908;-70
2024/03/06 04:25:32;;;;;;;15.40;14.90;;;;;;;;;;5026384;28;20478;-70
2024/03/06 04:27:59;;;;;;;15.43;14.93;;;;;;;;;;5023218;28;20495;-69
2024/03/06 04:30:26;;;;;;;14.93;14.50;;;;;;;;;;5028814;28;20523;-69
2024/03/06 04:32:53;;;;;;;15.50;15.00;;;;;;;;;;5024435;28;20838;-70
2024/03/06 04:35:20;;;;;;;14.40;14.00;;;;;;;;;;5029307;28;20460;-70
2024/03/06 04:37:48;;;;;;;14.53;14.13;;;;;;;;;;5019338;28;20479;-68
2024/03/06 04:40:17;;;;;;;15.90;15.40;;;;;;;;;;5028686;28;20463;-69
2024/03/06 04:42:47;;;;;;;14.53;14.13;;;;;;;;;;5021245;28;20475;-70
2024/03/06 04:45:17;;;;;;;15.60;15.10;;;;;;;;;;5018487;28;20468;-70
2024/03/06 04:47:44;;;;;;;15.20;14.70;;;;;;;;;;5028759;28;20498;-70
2024/03/06 04:50:11;;;;;;;15.13;14.63;;;;;;;;;;5028863;28;20821;-68
2024/03/06 04:52:38;;;;;;;14.97;14.57;;;;;;;;;;5027278;28;20468;-70
2024/03/06 04:55:06;;;;;;;16.20;15.70;;;;;;;;;;5027363;28;20480;-70
2024/03/06 04:57:36;;;;;;;15.90;15.40;;;;;;;;;;5024039;28;20467;-69
2024/03/06 05:00:05;;;;;;;16.13;15.63;;;;;;;;;;5027805;28;20889;-70
2024/03/06 05:02:35;;;;;;;16.63;16.13;;;;;;;;;;5013493;28;20524;-68
2024/03/06 05:05:02;;;;;;;16.00;15.50;;;;;;;;;;5019378;28;20883;-70
2024/03/06 05:07:30;;;;;;;16.20;15.70;;;;;;;;;;5022472;28;20496;-68
2024/03/06 05:09:58;;;;;;;15.83;15.33;;;;;;;;;;5023670;28;20460;-70
2024/03/06 05:12:25;;;;;;;16.80;16.20;;;;;;;;;;5020244;28;20476;-70
2024/03/06 05:14:54;;;;;;;16.07;15.57;;;;;;;;;;5023177;28;21030;-70
2024/03/06 05:17:21;;;;;;;16.80;16.20;;;;;;;;;;5023988;28;20468;-70
2024/03/06 05:19:49;;;;;;;17.20;16.60;;;;;;;;;;5022040;28;20487;-71
2024/03/06 05:22:16;;;;;;;16.67;16.07;;;;;;;;;;5021601;28;21017;-70
2024/03/06 05:24:42;;;;;;;17.00;16.40;;;;;;;;;;5026031;28;20473;-69
2024/03/06 05:27:13;;;;;;;17.43;16.77;;;;;;;;;;5018279;28;20518;-70
2024/03/06 05:29:40;;;;;;;17.30;16.70;;;;;;;;;;5024085;28;20468;-70
2024/03/06 05:32:08;;;;;;;16.80;16.20;;;;;;;;;;5023410;28;20510;-70
2024/03/06 05:34:36;;;;;;;17.50;16.90;;;;;;;;;;5019701;28;20484;-70
2024/03/06 05:37:04;;;;;;;16.93;16.33;;;;;;;;;;5022799;28;20587;-71
2024/03/06 05:39:33;;;;;;;17.57;16.97;;;;;;;;;;5020945;28;20479;-70
2024/03/06 05:42:03;;;;;;;18.00;17.30;;;;;;;;;;5026076;28;20496;-71
2024/03/06 05:44:31;;;;;;;17.23;16.63;;;;;;;;;;5024397;28;20948;-70
2024/03/06 05:46:59;;;;;;;18.00;17.30;;;;;;;;;;5023135;28;20504;-70
2024/03/06 05:49:27;;;;;;;17.90;17.20;;;;;;;;;;5023732;28;21522;-69
2024/03/06 05:51:54;;;;;;;18.00;17.30;;;;;;;;;;5017593;28;20476;-68
2024/03/06 05:54:21;;;;;;;18.43;17.73;;;;;;;;;;5024709;28;21073;-69
2024/03/06 05:56:51;;;;;;;18.30;17.60;;;;;;;;;;5016674;28;20564;-68
2024/03/06 05:59:18;;;;;;;17.47;16.83;;;;;;;;;;5022130;28;20464;-68
2024/03/06 06:01:45;;;;;;;17.37;16.77;;;;;;;;;;5023044;28;20484;-68
2024/03/06 06:04:13;;;;;;;18.13;17.43;;;;;;;;;;5020198;28;20479;-70
2024/03/06 06:06:41;;;;;;;17.87;17.17;;;;;;;;;;5021493;28;20496;-69
2024/03/06 06:09:13;;;;;;;17.30;16.70;;;;;;;;;;5024346;28;20829;-69
2024/03/06 06:11:40;;;;;;;17.63;17.00;;;;;;;;;;5022621;28;20464;-71
2024/03/06 06:14:07;;;;;;;16.47;15.87;;;;;;;;;;5022803;28;20495;-70
2024/03/06 06:16:38;;;;;;;17.53;16.93;;;;;;;;;;5024726;28;20460;-70
2024/03/06 06:19:05;;;;;;;17.00;16.40;;;;;;;;;;5019331;28;20475;-71
2024/03/06 06:21:35;;;;;;;18.00;17.40;;;;;;;;;;5020969;28;20594;-69
2024/03/06 06:24:04;;;;;;;17.20;16.60;;;;;;;;;;5025460;28;20456;-71
2024/03/06 06:26:32;;;;;;;17.50;16.90;;;;;;;;;;5022037;28;20472;-72
2024/03/06 06:28:59;;;;;;;17.27;16.67;;;;;;;;;;5023413;28;21158;-69
2024/03/06 06:31:26;;;;;;;17.60;17.00;;;;;;;;;;5025513;28;20457;-70
2024/03/06 06:33:54;;;;;;;18.07;17.47;;;;;;;;;;5024060;28;20501;-69
2024/03/06 06:36:21;;;;;;;17.50;16.90;;;;;;;;;;5014851;28;20465;-70
2024/03/06 06:38:48;;;;;;;17.37;16.77;;;;;;;;;;5011222;28;20477;-70
2024/03/06 06:41:17;;;;;;;16.87;16.27;;;;;;;;;;5018798;28;20470;-69
2024/03/06 06:43:44;;;;;;;17.40;16.80;;;;;;;;;;5025332;28;20466;-71
2024/03/06 06:46:11;;;;;;;17.13;16.53;;;;;;;;;;5021604;28;20464;-71
2024/03/06 06:48:38;;;;;;;18.00;17.40;;;;;;;;;;5022940;28;20489;-68
2024/03/06 06:51:06;;;;;;;17.63;17.03;;;;;;;;;;5022844;28;20469;-69
2024/03/06 06:53:33;;;;;;;17.33;16.73;;;;;;;;;;5025018;28;20556;-70
2024/03/06 06:56:00;;;;;;;18.40;17.70;;;;;;;;;;5023272;28;20908;-68
2024/03/06 06:58:28;;;;;;;18.00;17.40;;;;;;;;;;5027396;28;20457;-68
2024/03/06 07:00:55;;;;;;;16.30;15.80;;;;;;;;;;5026696;28;20484;-70
2024/03/06 07:03:29;;;;;;;17.30;16.70;;;;;;;;;;5028155;28;20457;-71
2024/03/06 07:05:56;;;;;;;17.43;16.83;;;;;;;;;;5023011;28;20472;-69
2024/03/06 07:08:24;;;;;;;16.90;16.30;;;;;;;;;;5020478;28;20599;-70
2024/03/06 07:10:53;;;;;;;16.83;16.23;;;;;;;;;;5027929;28;20944;-70
2024/03/06 07:13:20;;;;;;;17.53;16.93;;;;;;;;;;5025914;28;20959;-69
2024/03/06 07:15:48;;;;;;;17.80;17.20;;;;;;;;;;5021334;28;20615;-71
2024/03/06 07:18:15;;;;;;;18.20;17.50;;;;;;;;;;5015639;28;20993;-70
2024/03/06 07:20:43;;;;;;;17.43;16.83;;;;;;;;;;5014496;28;20977;-68
2024/03/06 07:23:10;;;;;;;18.30;17.60;;;;;;;;;;5015903;28;20465;-70
2024/03/06 07:25:37;;;;;;;17.20;16.60;;;;;;;;;;5012163;28;20976;-70
2024/03/06 07:28:04;;;;;;;17.60;17.00;;;;;;;;;;5018494;28;20487;-71
2024/03/06 07:30:31;;;;;;;17.60;17.00;;;;;;;;;;5015100;28;20476;-71
2024/03/06 07:33:00;;;;;;;16.90;16.30;;;;;;;;;;5018186;28;20469;-70
2024/03/06 07:35:27;;;;;;;18.80;18.10;;;;;;;;;;5017893;28;20518;-70
2024/03/06 07:37:54;;;;;;;17.90;17.20;;;;;;;;;;5013801;28;20458;-70
2024/03/06 07:40:21;;;;;;;18.00;17.30;;;;;;;;;;5015143;28;20468;-71
2024/03/06 07:42:48;;;;;;;17.30;16.70;;;;;;;;;;5014482;28;20477;-68
2024/03/06 07:45:16;;;;;;;16.30;15.80;;;;;;;;;;5014373;28;20481;-70
2024/03/06 07:47:43;;;;;;;16.07;15.57;;;;;;;;;;5015362;28;20489;-69
2024/03/06 07:50:12;;;;;;;17.37;16.77;;;;;;;;;;5015939;28;20474;-71
2024/03/06 07:52:39;;;;;;;16.53;15.93;;;;;;;;;;5014471;28;20465;-70
2024/03/06 07:55:07;;;;;;;16.80;16.20;;;;;;;;;;5012596;28;20491;-70
2024/03/06 07:57:34;;;;;;;16.40;15.80;;;;;;;;;;5014325;28;20469;-70
2024/03/06 08:00:01;;;;;;;16.57;15.97;;;;;;;;;;5014250;28;20476;-70
2024/03/06 08:02:29;;;;;;;15.70;15.20;;;;;;;;;;5013329;28;20499;-71
2024/03/06 08:04:56;;;;;;;14.43;14.03;;;;;;;;;;5015250;28;20851;-70
2024/03/06 08:07:25;;;;;;;14.90;14.40;;;;;;;;;;5015536;28;20462;-70
2024/03/06 08:09:52;;;;;;;14.30;13.90;;;;;;;;;;5016201;28;20461;-69
2024/03/06 08:12:19;;;;;;;14.20;13.80;;;;;;;;;;5014422;28;20973;-71
2024/03/06 08:14:46;;;;;;;14.17;13.73;;;;;;;;;;5014716;28;20469;-70
2024/03/06 08:17:13;;;;;;;13.80;13.40;;;;;;;;;;5013551;28;20976;-72
2024/03/06 08:19:41;;;;;;;13.93;13.43;;;;;;;;;;5015507;28;20470;-69
2024/03/06 08:22:08;;;;;;;13.80;13.40;;;;;;;;;;5013975;28;20468;-70
2024/03/06 08:24:37;;;;;;;13.60;13.20;;;;;;;;;;5016357;28;20466;-71
2024/03/06 08:27:04;;;;;;;13.40;13.00;;;;;;;;;;5014478;28;20808;-70
2024/03/06 08:29:31;;;;;;;13.67;13.27;;;;;;;;;;5010387;28;20502;-71
2024/03/06 08:32:00;;;;;;;12.63;12.23;;;;;;;;;;5016249;28;21050;-70
2024/03/06 08:34:28;;;;;;;13.37;12.97;;;;;;;;;;5015464;28;20833;-69
2024/03/06 08:36:56;;;;;;;12.80;12.40;;;;;;;;;;5015721;28;20473;-70
2024/03/06 08:39:23;;;;;;;12.57;12.17;;;;;;;;;;5014215;28;20982;-71
2024/03/06 08:41:52;;;;;;;12.90;12.50;;;;;;;;;;5014419;28;20468;-70
2024/03/06 08:44:20;;;;;;;13.27;12.87;;;;;;;;;;5015429;28;20953;-70
2024/03/06 08:46:47;;;;;;;13.70;13.20;;;;;;;;;;5016152;28;20484;-71
2024/03/06 08:49:15;;;;;;;13.73;13.23;;;;;;;;;;5015885;28;20494;-71
2024/03/06 08:51:42;;;;;;;13.53;13.07;;;;;;;;;;5015042;28;20469;-70
2024/03/06 08:54:10;;;;;;;13.77;13.27;;;;;;;;;;5015221;28;20471;-69
2024/03/06 08:56:37;;;;;;;13.67;13.17;;;;;;;;;;5016124;28;20585;-70
2024/03/06 08:59:06;;;;;;;14.00;13.50;;;;;;;;;;5014812;28;20467;-71
2024/03/06 09:01:33;;;;;;;15.27;14.67;;;;;;;;;;5010576;28;20486;-70
2024/03/06 09:04:00;;;;;;;14.90;14.30;;;;;;;;;;5013564;28;20470;-71
2024/03/06 09:06:28;;;;;;;15.23;14.63;;;;;;;;;;5016360;28;20471;-70
2024/03/06 09:08:55;;;;;;;14.97;14.37;;;;;;;;;;5014123;28;20539;-70
2024/03/06 09:11:23;;;;;;;14.97;14.37;;;;;;;;;;5011528;28;20459;-70
2024/03/06 09:13:50;;;;;;;15.23;14.63;;;;;;;;;;5010897;28;20520;-70
2024/03/06 09:16:18;;;;;;;15.03;14.43;;;;;;;;;;5014369;28;20485;-70
2024/03/06 09:18:45;;;;;;;14.20;13.70;;;;;;;;;;5013327;28;20467;-69
2024/03/06 09:21:13;;;;;;;14.70;14.10;;;;;;;;;;5011861;28;20921;-70
2024/03/06 09:23:40;;;;;;;15.53;14.93;;;;;;;;;;5013780;28;20489;-72
2024/03/06 09:26:07;;;;;;;14.27;13.77;;;;;;;;;;5012000;28;20485;-70
2024/03/06 09:28:34;;;;;;;14.13;13.63;;;;;;;;;;5013467;28;21012;-70
2024/03/06 09:31:01;;;;;;;14.13;13.63;;;;;;;;;;5012239;28;20488;-70
2024/03/06 09:33:30;;;;;;;13.73;13.23;;;;;;;;;;5014320;28;21982;-70
2024/03/06 09:35:58;;;;;;;14.27;13.77;;;;;;;;;;5014481;28;20470;-70
2024/03/06 09:38:25;;;;;;;14.13;13.63;;;;;;;;;;5017371;28;20855;-70
2024/03/06 09:40:54;;;;;;;15.00;14.40;;;;;;;;;;5015357;28;20472;-70
2024/03/06 09:43:21;;;;;;;14.63;14.03;;;;;;;;;;5014914;28;20552;-70
2024/03/06 09:45:50;;;;;;;14.97;14.37;;;;;;;;;;5012794;28;20474;-72
2024/03/06 09:48:18;;;;;;;14.30;13.80;;;;;;;;;;5013178;28;20482;-70
2024/03/06 09:50:47;;;;;;;15.40;14.80;;;;;;;;;;5015117;28;20471;-70
2024/03/06 09:53:16;;;;;;;15.33;14.73;;;;;;;;;;5017369;28;20479;-70
2024/03/06 09:55:44;;;;;;;15.00;14.40;;;;;;;;;;5015664;28;20484;-71
2024/03/06 09:58:11;;;;;;;14.90;14.30;;;;;;;;;;5009844;28;20476;-72
2024/03/06 10:00:38;;;;;;;15.13;14.53;;;;;;;;;;5017033;28;20495;-70
2024/03/06 10:03:08;;;;;;;14.20;13.70;;;;;;;;;;5013882;28;20474;-71
2024/03/06 10:05:35;;;;;;;14.30;13.80;;;;;;;;;;5012189;28;20464;-71
2024/03/06 10:08:04;;;;;;;14.90;14.30;;;;;;;;;;5015941;28;20470;-70
2024/03/06 10:10:32;;;;;;;14.80;14.30;;;;;;;;;;5016640;28;21251;-70
2024/03/06 10:13:00;;;;;;;14.17;13.67;;;;;;;;;;5014235;28;21046;-71
2024/03/06 10:15:28;;;;;;;13.90;13.40;;;;;;;;;;5011831;28;20473;-70
2024/03/06 10:18:12;;;;;;;13.50;13.10;;;;;;;;;;5008785;28;20476;-70
2024/03/06 10:20:39;;;;;;;13.40;13.00;;;;;;;;;;5011190;28;20460;-72
2024/03/06 10:23:08;;;;;;;13.50;13.10;;;;;;;;;;5008508;28;20470;-71
2024/03/06 10:25:36;;;;;;;14.23;13.73;;;;;;;;;;5014703;28;20463;-70
2024/03/06 10:28:07;;;;;;;13.90;13.40;;;;;;;;;;5012454;28;20998;-71
2024/03/06 10:30:35;;;;;;;14.20;13.70;;;;;;;;;;5014569;28;20473;-72
2024/03/06 10:33:03;;;;;;;13.50;13.10;;;;;;;;;;5016782;28;20462;-71
2024/03/06 10:35:30;;;;;;;14.00;13.50;;;;;;;;;;5014633;28;20754;-72
2024/03/06 10:37:57;;;;;;;13.80;13.30;;;;;;;;;;5009771;28;20474;-73
2024/03/06 10:40:29;;;;;;;14.70;14.20;;;;;;;;;;5009997;28;20844;-72
2024/03/06 10:42:56;;;;;;;14.50;14.00;;;;;;;;;;5014664;28;20500;-71
2024/03/06 10:45:25;;;;;;;14.30;13.80;;;;;;;;;;5011159;28;20473;-71
2024/03/06 10:47:53;;;;;;;14.77;14.27;;;;;;;;;;5014442;28;20846;-72
2024/03/06 10:50:20;;;;;;;14.70;14.20;;;;;;;;;;5013031;28;20499;-72
2024/03/06 10:52:49;;;;;;;14.90;14.40;;;;;;;;;;5011617;28;20471;-72
2024/03/06 10:55:17;;;;;;;14.53;14.03;;;;;;;;;;5011352;28;20496;-71
2024/03/06 10:57:47;;;;;;;14.40;13.90;;;;;;;;;;5015453;28;20838;-71
2024/03/06 11:00:18;;;;;;;15.50;14.90;;;;;;;;;;5012273;28;20462;-73
2024/03/06 11:02:48;;;;;;;15.37;14.77;;;;;;;;;;5014683;28;20463;-71
2024/03/06 11:05:15;;;;;;;15.33;14.73;;;;;;;;;;5011505;28;20466;-70
2024/03/06 11:07:44;;;;;;;15.57;14.97;;;;;;;;;;5013364;28;20492;-71
2024/03/06 11:10:16;;;;;;;15.30;14.70;;;;;;;;;;5011767;28;20533;-71
2024/03/06 11:12:44;;;;;;;15.33;14.73;;;;;;;;;;5013930;28;20993;-71
2024/03/06 11:15:15;;;;;;;15.10;14.50;;;;;;;;;;5012780;28;21022;-71
2024/03/06 11:17:42;;;;;;;15.23;14.63;;;;;;;;;;5014678;28;20837;-71
2024/03/06 11:20:10;;;;;;;16.00;15.40;;;;;;;;;;5013039;28;20801;-71
2024/03/06 11:22:55;;;;;;;15.50;14.90;;;;;;;;;;5014172;28;20478;-71
2024/03/06 11:25:41;;;;;;;15.43;14.83;;;;;;;;;;5012167;28;20469;-72
2024/03/06 11:28:12;;;;;;;15.00;14.40;;;;;;;;;;5015033;28;20484;-72
2024/03/06 11:30:47;;;;;;;14.50;14.00;;;;;;;;;;5014871;28;20853;-71
2024/03/06 11:33:16;;;;;;;14.70;14.20;;;;;;;;;;5013809;28;20476;-71
2024/03/06 11:35:48;;;;;;;15.00;14.40;;;;;;;;;;5013898;28;20471;-72
2024/03/06 11:38:18;;;;;;;15.10;14.50;;;;;;;;;;5014976;28;20861;-71
2024/03/06 11:40:45;;;;;;;14.77;14.27;;;;;;;;;;5017607;28;20468;-71
2024/03/06 11:43:26;;;;;;;14.77;14.27;;;;;;;;;;5019630;28;20468;-71
2024/03/06 11:46:09;;;;;;;14.70;14.20;;;;;;;;;;5015526;28;20459;-72
2024/03/06 11:48:36;;;;;;;14.50;14.00;;;;;;;;;;5010246;28;21013;-71
2024/03/06 11:51:04;;;;;;;14.17;13.67;;;;;;;;;;5015027;28;20460;-72
2024/03/06 11:53:31;;;;;;;14.40;13.90;;;;;;;;;;5018856;28;20492;-72
2024/03/06 11:55:59;;;;;;;14.50;14.00;;;;;;;;;;5015535;28;20478;-72
2024/03/06 11:58:26;;;;;;;15.60;15.00;;;;;;;;;;5018542;28;20547;-72
2024/03/06 12:00:55;;;;;;;15.43;14.83;;;;;;;;;;5018642;28;20498;-75
2024/03/06 12:03:25;;;;;;;15.20;14.60;;;;;;;;;;5012979;28;20473;-72
2024/03/06 12:05:52;;;;;;;15.30;14.70;;;;;;;;;;5014886;28;20574;-72
2024/03/06 12:08:20;;;;;;;16.03;15.43;;;;;;;;;;5018670;28;20471;-72
2024/03/06 12:10:48;;;;;;;14.90;14.40;;;;;;;;;;5016529;28;20512;-72
2024/03/06 12:13:16;;;;;;;15.20;14.60;;;;;;;;;;5012370;28;20473;-72
2024/03/06 12:15:45;;;;;;;15.50;14.90;;;;;;;;;;5015103;28;20477;-72
2024/03/06 12:18:14;;;;;;;15.40;14.80;;;;;;;;;;5013074;28;20843;-72
2024/03/06 12:20:45;;;;;;;15.50;14.90;;;;;;;;;;5013777;28;20845;-72
2024/03/06 12:23:22;;;;;;;15.70;15.10;;;;;;;;;;5017856;28;20471;-72
2024/03/06 12:25:49;;;;;;;15.70;15.10;;;;;;;;;;5013862;28;20865;-71
2024/03/06 12:28:17;;;;;;;15.67;15.07;;;;;;;;;;5016854;28;20462;-74
2024/03/06 12:30:46;;;;;;;16.00;15.40;;;;;;;;;;5015003;28;20499;-71
2024/03/06 12:33:18;;;;;;;16.27;15.57;;;;;;;;;;5014669;28;20902;-71
2024/03/06 12:35:45;;;;;;;16.60;15.90;;;;;;;;;;5013441;28;20470;-73
2024/03/06 12:38:15;;;;;;;16.70;16.00;;;;;;;;;;5018395;28;20476;-71
2024/03/06 12:40:42;;;;;;;16.47;15.80;;;;;;;;;;5014682;28;20477;-70
2024/03/06 12:43:10;;;;;;;16.83;16.13;;;;;;;;;;5019049;28;21467;-70
2024/03/06 12:45:38;;;;;;;16.33;15.73;;;;;;;;;;5016474;28;21214;-72
2024/03/06 12:48:06;;;;;;;15.80;15.20;;;;;;;;;;5012414;28;20510;-71
2024/03/06 12:50:35;;;;;;;16.63;16.03;;;;;;;;;;5012690;28;20499;-71
2024/03/06 12:53:04;;;;;;;15.33;14.83;;;;;;;;;;5016781;28;22302;-70
2024/03/06 12:55:31;;;;;;;16.13;15.53;;;;;;;;;;5015762;28;20497;-73
2024/03/06 12:57:58;;;;;;;16.20;15.60;;;;;;;;;;5013976;28;20742;-72
2024/03/06 13:00:25;;;;;;;16.30;15.70;;;;;;;;;;5015991;28;20480;-74
2024/03/06 13:02:53;;;;;;;16.00;15.40;;;;;;;;;;5009759;28;20475;-74
2024/03/06 13:05:20;;;;;;;16.00;15.40;;;;;;;;;;5015294;28;20469;-72
2024/03/06 13:07:49;;;;;;;16.67;16.07;;;;;;;;;;5013770;28;20470;-71
2024/03/06 13:10:17;;;;;;;16.80;16.20;;;;;;;;;;5014638;28;20563;-73
2024/03/06 13:12:44;;;;;;;17.17;16.57;;;;;;;;;;5014598;28;20478;-74
2024/03/06 13:15:11;;;;;;;17.07;16.43;;;;;;;;;;5013991;28;20474;-75
2024/03/06 13:17:39;;;;;;;16.83;16.23;;;;;;;;;;5013155;28;20489;-74
2024/03/06 13:20:09;;;;;;;16.60;16.00;;;;;;;;;;5010542;28;20563;-76
2024/03/06 13:22:51;;;;;;;16.40;15.80;;;;;;;;;;5013787;28;20458;-73
2024/03/06 13:25:20;;;;;;;16.53;15.93;;;;;;;;;;5016950;28;20471;-72
2024/03/06 13:27:47;;;;;;;16.17;15.57;;;;;;;;;;5013741;28;20855;-75
2024/03/06 13:30:15;;;;;;;15.60;15.10;;;;;;;;;;5014936;28;20497;-72
2024/03/06 13:32:45;;;;;;;17.00;16.40;;;;;;;;;;5013575;28;20810;-75
2024/03/06 13:35:13;;;;;;;17.27;16.67;;;;;;;;;;5010859;28;20505;-72
2024/03/06 13:37:40;;;;;;;17.53;16.83;;;;;;;;;;5010445;28;20494;-73
2024/03/06 13:40:08;;;;;;;17.20;16.50;;;;;;;;;;5016508;28;20467;-71
2024/03/06 13:42:37;;;;;;;17.10;16.40;;;;;;;;;;5012731;28;20461;-70
2024/03/06 13:45:04;;;;;;;17.20;16.50;;;;;;;;;;5014030;28;20470;-71
2024/03/06 13:47:32;;;;;;;17.20;16.50;;;;;;;;;;5014553;28;20946;-73
2024/03/06 13:49:59;;;;;;;17.00;16.40;;;;;;;;;;5013507;28;20493;-72
2024/03/06 13:52:26;;;;;;;17.40;16.77;;;;;;;;;;5010403;28;21414;-70
2024/03/06 13:54:53;;;;;;;17.67;16.97;;;;;;;;;;5010254;28;20543;-70
2024/03/06 13:57:20;;;;;;;16.80;16.20;;;;;;;;;;5011910;28;22618;-70
2024/03/06 13:59:50;;;;;;;16.93;16.33;;;;;;;;;;5013560;28;20515;-70
2024/03/06 14:02:17;;;;;;;17.00;16.40;;;;;;;;;;5011530;28;20580;-72
2024/03/06 14:04:44;;;;;;;17.60;16.90;;;;;;;;;;5014597;28;20473;-71
2024/03/06 14:07:12;;;;;;;17.00;16.40;;;;;;;;;;5012785;28;20455;-71
2024/03/06 14:09:40;;;;;;;17.77;17.07;;;;;;;;;;5016657;28;20485;-70
2024/03/06 14:12:08;;;;;;;17.30;16.70;;;;;;;;;;5007149;28;20467;-71
2024/03/06 14:14:35;;;;;;;17.70;17.00;;;;;;;;;;5016183;28;20465;-70
2024/03/06 14:17:04;;;;;;;18.30;17.60;;;;;;;;;;5014343;28;20469;-70
2024/03/06 14:19:31;;;;;;;17.50;16.90;;;;;;;;;;5013688;28;21078;-73
2024/03/06 14:21:58;;;;;;;18.10;17.40;;;;;;;;;;5015651;28;20457;-69
2024/03/06 14:24:25;;;;;;;17.10;16.50;;;;;;;;;;5014220;28;20480;-71
2024/03/06 14:26:52;;;;;;;17.60;16.90;;;;;;;;;;5013717;28;20467;-71